Terminal Aerodrome Forecast
Issued by NWS

Home | Current Version | Previous Version | Text Only | Print | Product List | Glossary On
Versions: 1 2 3 4 5 6 7 8 9 10 11 12 13 14 15 16 17 18 19 20 21 22 23
000
FTUS42 KJAX 020931 AAC
TAFCRG
TAF AMD
KCRG 020931Z 0210/0306 00000KT 3SM BR SCT004 BKN250
      TEMPO 0210/0212 1SM BR BKN004
     FM021300 23006KT P6SM SCT030 SCT250
     FM021700 16008KT P6SM VCTS BKN035CB
      TEMPO 0220/0223 3SM TSRA OVC030CB
     FM030000 19005KT P6SM VCSH SCT040 BKN120=

USA.gov is the U.S. government's official web portal to all federal, state and local government web resources and services.